Lochearnhead, United Kingdom
Current Conditions -  °F | °C
As of 9:20 AM on Saturday 20 Dec 2014 (Local Time) from EGPF Reporting Station
Scattered Clouds Scattered Clouds  
Wind Chill: 33°   Ceiling: Unl
Heat Index: 41°   Visibility: 6mi
Dew Point: 37°   Wind: 15mph
Humidity: 87%   Direction: 270°W
Pressure: 30.03"   Gusts: NA
Location:  56.39°N, 4.29°W
Report Text: EGPF 200920Z AUTO 27013KT 9999 FEW026/// SCT045/// //////TCU 05/03 Q1017
Loading
Personal Weather Stations






























Interactive Weather Map New forecast layout! Learn more

10-Day Weather Forecast

Advertisements
Track Severe Weather on mobile